createdAt,value
2023-09-30T00:00:12.725Z,34.40
2023-09-30T00:02:40.183Z,35.20
2023-09-30T00:05:07.693Z,31.90
2023-09-30T00:07:35.053Z,33.50
2023-09-30T00:10:02.363Z,28.60
2023-09-30T00:12:29.759Z,29.70
2023-09-30T00:14:56.725Z,30.00
2023-09-30T00:17:23.655Z,32.20
2023-09-30T00:19:50.630Z,34.10
2023-09-30T00:22:17.624Z,33.40
2023-09-30T00:24:44.631Z,33.60
2023-09-30T00:27:11.741Z,34.10
2023-09-30T00:29:39.273Z,30.40
2023-09-30T00:32:06.256Z,38.60
2023-09-30T00:34:35.098Z,46.10
2023-09-30T00:37:02.373Z,51.30
2023-09-30T00:39:32.297Z,57.40
2023-09-30T00:42:02.607Z,57.30
2023-09-30T00:44:29.784Z,54.50
2023-09-30T00:46:57.072Z,57.50
2023-09-30T00:49:24.904Z,47.30
2023-09-30T00:51:53.044Z,51.90
2023-09-30T00:54:20.456Z,51.50
2023-09-30T00:56:48.025Z,53.50
2023-09-30T00:59:15.718Z,52.10
2023-09-30T01:01:44.916Z,48.30
2023-09-30T01:04:12.711Z,46.90
2023-09-30T01:06:40.900Z,47.00
2023-09-30T01:09:10.726Z,36.80
2023-09-30T01:11:37.825Z,38.20
2023-09-30T01:14:04.947Z,37.10
2023-09-30T01:16:32.079Z,35.40
2023-09-30T01:18:59.255Z,33.90
2023-09-30T01:21:27.862Z,31.20
2023-09-30T01:23:54.921Z,31.00
2023-09-30T01:26:21.941Z,30.80
2023-09-30T01:28:50.035Z,26.00
2023-09-30T01:31:17.048Z,26.90
2023-09-30T01:33:44.033Z,26.90
2023-09-30T01:36:11.037Z,27.70
2023-09-30T01:38:37.992Z,27.50
2023-09-30T01:41:05.057Z,29.80
2023-09-30T01:43:33.263Z,29.50
2023-09-30T01:46:00.275Z,27.70
2023-09-30T01:48:27.340Z,23.60
2023-09-30T01:50:54.384Z,34.50
2023-09-30T01:53:21.430Z,43.10
2023-09-30T01:55:49.237Z,38.50
2023-09-30T01:58:16.288Z,32.20
2023-09-30T02:00:43.453Z,29.00
2023-09-30T02:03:10.595Z,28.00
2023-09-30T02:05:37.885Z,26.40
2023-09-30T02:08:07.123Z,22.30
2023-09-30T02:10:34.844Z,21.60
2023-09-30T02:13:02.212Z,22.80
2023-09-30T02:15:29.342Z,22.40
2023-09-30T02:17:56.338Z,21.70
2023-09-30T02:20:27.061Z,22.40
2023-09-30T02:22:55.539Z,23.30
2023-09-30T02:25:22.688Z,23.70
2023-09-30T02:27:51.643Z,19.90
2023-09-30T02:30:18.722Z,21.00
2023-09-30T02:32:47.414Z,21.70
2023-09-30T02:35:16.724Z,22.00
2023-09-30T02:37:44.281Z,24.70
2023-09-30T02:40:12.134Z,24.80
2023-09-30T02:42:40.240Z,29.00
2023-09-30T02:45:09.294Z,24.20
2023-09-30T02:47:36.660Z,24.90
2023-09-30T02:50:05.853Z,26.50
2023-09-30T02:52:32.983Z,30.10
2023-09-30T02:54:59.944Z,33.10
2023-09-30T02:57:28.878Z,46.10
2023-09-30T02:59:57.709Z,53.80
2023-09-30T03:02:25.240Z,46.70
2023-09-30T03:04:53.336Z,41.00
2023-09-30T03:07:21.146Z,38.40
2023-09-30T03:09:48.343Z,36.10
2023-09-30T03:12:15.624Z,35.40
2023-09-30T03:14:43.992Z,34.70
2023-09-30T03:17:13.789Z,32.90
2023-09-30T03:19:41.007Z,35.90
2023-09-30T03:22:12.632Z,30.90
2023-09-30T03:24:41.046Z,24.80
2023-09-30T03:27:09.028Z,23.40
2023-09-30T03:29:39.722Z,25.40
2023-09-30T03:32:06.902Z,25.60
2023-09-30T03:34:45.955Z,26.80
2023-09-30T03:37:13.105Z,24.30
2023-09-30T03:39:42.204Z,21.50
2023-09-30T03:42:12.603Z,19.00
2023-09-30T03:44:40.030Z,18.80
2023-09-30T03:47:08.858Z,18.50
2023-09-30T03:49:35.787Z,18.90
2023-09-30T03:52:02.919Z,20.70
2023-09-30T03:54:30.086Z,21.80
2023-09-30T03:56:57.119Z,25.20
2023-09-30T03:59:24.519Z,20.30
2023-09-30T04:01:51.436Z,21.40
2023-09-30T04:04:19.492Z,23.80
2023-09-30T04:06:48.649Z,30.10
2023-09-30T04:09:17.559Z,28.50
2023-09-30T04:11:44.620Z,28.50
2023-09-30T04:14:11.583Z,29.00
2023-09-30T04:16:38.979Z,23.70
2023-09-30T04:19:06.204Z,25.20
2023-09-30T04:21:35.719Z,21.80
2023-09-30T04:24:02.908Z,21.20
2023-09-30T04:26:31.315Z,20.10
2023-09-30T04:29:00.659Z,19.90
2023-09-30T04:31:29.930Z,20.50
2023-09-30T04:33:59.272Z,19.90
2023-09-30T04:36:26.509Z,20.00
2023-09-30T04:38:53.448Z,24.30
2023-09-30T04:41:20.576Z,36.90
2023-09-30T04:43:47.640Z,41.40
2023-09-30T04:46:15.013Z,41.40
2023-09-30T04:48:42.718Z,31.50
2023-09-30T04:51:10.290Z,32.10
2023-09-30T04:53:38.694Z,27.20
2023-09-30T04:56:05.714Z,26.60
2023-09-30T04:58:32.825Z,24.80
2023-09-30T05:00:59.972Z,23.50
2023-09-30T05:03:27.452Z,22.40
2023-09-30T05:05:56.961Z,20.00
2023-09-30T05:08:25.617Z,19.60
2023-09-30T05:10:56.742Z,16.40
2023-09-30T05:13:26.855Z,17.00
2023-09-30T05:15:53.952Z,18.30
2023-09-30T05:18:21.083Z,18.20
2023-09-30T05:20:48.344Z,17.40
2023-09-30T05:23:16.136Z,17.10
2023-09-30T05:25:44.173Z,16.80
2023-09-30T05:28:12.919Z,14.00
2023-09-30T05:30:41.977Z,15.40
2023-09-30T05:33:11.493Z,15.60
2023-09-30T05:35:39.855Z,15.30
2023-09-30T05:38:08.543Z,14.90
2023-09-30T05:40:35.559Z,14.80
2023-09-30T05:43:02.703Z,14.50
2023-09-30T05:45:32.424Z,12.80
2023-09-30T05:48:03.912Z,13.90
2023-09-30T05:50:31.136Z,13.70
2023-09-30T05:52:58.434Z,15.30
2023-09-30T05:55:27.211Z,16.00
2023-09-30T05:57:55.498Z,16.40
2023-09-30T06:00:32.608Z,18.60
2023-09-30T06:03:00.364Z,17.70
2023-09-30T06:05:28.540Z,16.90
2023-09-30T06:07:55.758Z,14.40
2023-09-30T06:10:23.529Z,16.50
2023-09-30T06:12:56.526Z,18.00
2023-09-30T06:15:27.472Z,18.40
2023-09-30T06:20:23.719Z,17.40
2023-09-30T06:22:51.003Z,20.70
2023-09-30T06:25:18.999Z,20.50
2023-09-30T06:27:46.709Z,20.20
2023-09-30T06:30:15.245Z,20.70
2023-09-30T06:32:42.899Z,20.00
2023-09-30T06:35:11.615Z,17.20
2023-09-30T06:37:39.138Z,18.10
2023-09-30T06:40:09.189Z,20.00
2023-09-30T06:42:37.065Z,18.40
2023-09-30T06:45:08.700Z,16.60
2023-09-30T06:47:37.640Z,16.10
2023-09-30T06:50:09.432Z,14.70
2023-09-30T06:52:39.111Z,15.00
2023-09-30T06:55:07.458Z,15.20
2023-09-30T06:57:38.558Z,16.50
2023-09-30T07:00:10.554Z,22.70
2023-09-30T07:02:37.767Z,33.30
2023-09-30T07:05:15.192Z,32.60
2023-09-30T07:07:46.611Z,32.20
2023-09-30T07:10:14.391Z,19.20
2023-09-30T07:12:41.526Z,17.90
2023-09-30T07:15:09.604Z,17.20
2023-09-30T07:17:37.064Z,16.10
2023-09-30T07:20:06.179Z,15.30
2023-09-30T07:22:50.262Z,17.00
2023-09-30T07:25:20.019Z,15.90
2023-09-30T07:27:47.603Z,18.70
2023-09-30T07:30:16.936Z,16.80
2023-09-30T07:32:44.555Z,17.40
2023-09-30T07:35:18.178Z,16.90
2023-09-30T07:37:45.439Z,17.70
2023-09-30T07:40:13.108Z,17.20
2023-09-30T07:42:40.227Z,17.60
2023-09-30T07:45:08.594Z,17.20
2023-09-30T07:47:35.782Z,17.40
2023-09-30T07:50:11.307Z,20.00
2023-09-30T07:52:40.758Z,19.30
2023-09-30T07:55:09.640Z,19.60
2023-09-30T07:57:38.584Z,19.10
2023-09-30T08:00:10.597Z,18.60
2023-09-30T08:02:38.306Z,17.80
2023-09-30T08:05:07.278Z,17.50
2023-09-30T08:07:35.126Z,18.60
2023-09-30T08:10:06.126Z,16.90
2023-09-30T08:12:34.249Z,17.10
2023-09-30T08:15:01.471Z,16.60
2023-09-30T08:17:28.576Z,17.10
2023-09-30T08:19:55.592Z,17.50
2023-09-30T08:22:26.592Z,16.50
2023-09-30T08:24:53.741Z,15.90
2023-09-30T08:27:21.215Z,18.20
2023-09-30T08:29:48.442Z,15.70
2023-09-30T08:32:15.938Z,15.40
2023-09-30T08:34:43.148Z,15.50
2023-09-30T08:37:10.886Z,14.70
2023-09-30T08:39:44.484Z,20.50
2023-09-30T08:42:15.425Z,15.20
2023-09-30T08:44:42.461Z,14.30
2023-09-30T08:47:10.930Z,13.60
2023-09-30T08:49:41.899Z,13.80
2023-09-30T08:52:11.036Z,13.80
2023-09-30T08:54:38.843Z,13.20
2023-09-30T08:57:05.809Z,12.30
2023-09-30T08:59:33.438Z,12.20
2023-09-30T09:02:01.392Z,12.30
2023-09-30T09:04:28.564Z,10.10
2023-09-30T09:06:56.823Z,9.00
2023-09-30T09:09:24.948Z,10.00
2023-09-30T09:11:52.943Z,8.50
2023-09-30T09:14:20.199Z,9.50
2023-09-30T09:16:54.981Z,9.00
2023-09-30T09:19:22.746Z,9.40
2023-09-30T09:21:57.121Z,9.70
2023-09-30T09:24:34.402Z,9.00
2023-09-30T09:27:11.919Z,8.50
2023-09-30T09:29:40.319Z,8.20
2023-09-30T09:32:11.550Z,7.40
2023-09-30T09:34:39.807Z,8.10
2023-09-30T09:37:20.744Z,7.10
2023-09-30T09:39:54.977Z,7.10
2023-09-30T09:42:29.153Z,6.50
2023-09-30T09:45:04.770Z,7.00
2023-09-30T09:47:32.910Z,6.80
2023-09-30T09:50:00.170Z,6.30
2023-09-30T09:52:27.673Z,6.60
2023-09-30T09:54:54.702Z,6.70
2023-09-30T09:57:21.766Z,6.30
2023-09-30T09:59:48.849Z,7.10
2023-09-30T10:02:16.532Z,6.90
2023-09-30T10:04:44.750Z,6.90
2023-09-30T10:07:15.349Z,6.80
2023-09-30T10:09:42.962Z,6.30
2023-09-30T10:12:10.190Z,8.20
2023-09-30T10:14:37.464Z,7.20
2023-09-30T10:17:05.077Z,6.30
2023-09-30T10:19:33.441Z,6.90
2023-09-30T10:22:20.302Z,6.60
2023-09-30T10:24:47.802Z,7.50
2023-09-30T10:27:30.829Z,7.40
2023-09-30T10:30:01.147Z,6.40
2023-09-30T10:32:57.268Z,6.90
2023-09-30T10:35:33.450Z,7.40
2023-09-30T10:38:31.824Z,7.20
2023-09-30T10:40:59.342Z,7.00
2023-09-30T10:43:40.151Z,6.80
2023-09-30T10:46:29.282Z,6.90
2023-09-30T10:48:58.776Z,6.70
2023-09-30T10:51:26.188Z,7.00
2023-09-30T10:53:56.536Z,7.40
2023-09-30T10:58:51.707Z,7.40
2023-09-30T11:01:23.033Z,7.90
2023-09-30T11:03:52.698Z,7.00
2023-09-30T11:06:22.571Z,7.40
2023-09-30T11:09:03.872Z,7.60
2023-09-30T11:11:38.950Z,7.30
2023-09-30T11:14:18.083Z,6.40
2023-09-30T11:16:45.136Z,6.50
2023-09-30T11:19:16.489Z,6.70
2023-09-30T11:21:47.025Z,6.20
2023-09-30T11:24:15.407Z,6.00
2023-09-30T11:26:42.509Z,6.40
2023-09-30T11:29:14.539Z,5.90
2023-09-30T11:31:42.197Z,6.90
2023-09-30T11:34:09.359Z,6.10
2023-09-30T11:36:37.274Z,6.00
2023-09-30T11:39:06.205Z,6.40
2023-09-30T11:41:35.095Z,6.60
2023-09-30T11:44:17.461Z,6.80
2023-09-30T11:46:51.077Z,7.70
2023-09-30T11:49:41.777Z,6.50
2023-09-30T11:52:12.900Z,6.50
2023-09-30T11:54:47.810Z,6.10
2023-09-30T11:57:19.360Z,7.20
2023-09-30T11:59:47.249Z,6.50
2023-09-30T12:02:18.670Z,7.20
2023-09-30T12:04:48.680Z,5.80
2023-09-30T12:07:16.459Z,5.90
2023-09-30T12:09:44.004Z,5.70
2023-09-30T12:12:15.957Z,6.40
2023-09-30T12:14:43.196Z,6.00
2023-09-30T12:17:12.778Z,6.00
2023-09-30T12:19:40.273Z,6.00
2023-09-30T12:22:07.687Z,6.60
2023-09-30T12:24:35.105Z,6.20
2023-09-30T12:27:02.685Z,6.20
2023-09-30T12:29:30.872Z,6.50
2023-09-30T12:31:58.133Z,6.30
2023-09-30T12:34:27.276Z,6.20
2023-09-30T12:36:55.271Z,6.70
2023-09-30T12:39:26.120Z,6.30
2023-09-30T12:41:54.395Z,5.80
2023-09-30T12:44:21.642Z,6.10
2023-09-30T12:46:48.936Z,5.80
2023-09-30T12:49:16.318Z,5.90
2023-09-30T12:51:43.835Z,6.30
2023-09-30T12:54:12.187Z,6.60
2023-09-30T12:56:39.268Z,23.60
2023-09-30T12:59:06.219Z,6.80
2023-09-30T13:01:36.152Z,6.40
2023-09-30T13:04:04.297Z,6.30
2023-09-30T13:06:33.964Z,6.00
2023-09-30T13:09:01.419Z,6.40
2023-09-30T13:11:28.897Z,5.50
2023-09-30T13:13:56.434Z,6.80
2023-09-30T13:16:23.925Z,7.30
2023-09-30T13:18:53.667Z,6.60
2023-09-30T13:21:21.722Z,6.80
2023-09-30T13:23:48.746Z,6.40
2023-09-30T13:26:15.684Z,6.40
2023-09-30T13:28:42.708Z,6.80
2023-09-30T13:31:09.865Z,6.10
2023-09-30T13:33:36.945Z,6.10
2023-09-30T13:36:04.216Z,5.90
2023-09-30T13:38:31.500Z,15.10
2023-09-30T13:40:58.529Z,7.00
2023-09-30T13:43:25.599Z,6.50
2023-09-30T13:45:52.818Z,6.70
2023-09-30T13:48:19.845Z,7.20
2023-09-30T13:50:47.035Z,7.50
2023-09-30T13:53:14.039Z,7.00
2023-09-30T13:55:41.000Z,9.10
2023-09-30T13:58:08.176Z,8.40
2023-09-30T14:00:35.226Z,7.90
2023-09-30T14:03:02.433Z,7.60
2023-09-30T14:05:29.840Z,7.10
2023-09-30T14:07:56.830Z,8.60
2023-09-30T14:10:25.376Z,8.20
2023-09-30T14:12:52.602Z,7.20
2023-09-30T14:15:19.806Z,7.20
2023-09-30T14:17:46.878Z,7.30
2023-09-30T14:20:14.229Z,7.20
2023-09-30T14:22:41.258Z,7.30
2023-09-30T14:25:08.922Z,7.40
2023-09-30T14:27:36.122Z,8.30
2023-09-30T14:30:08.435Z,8.90
2023-09-30T14:32:36.278Z,9.30
2023-09-30T14:35:06.867Z,10.00
2023-09-30T14:40:01.048Z,11.00
2023-09-30T14:42:28.946Z,12.00
2023-09-30T14:44:57.701Z,12.20
2023-09-30T14:47:24.792Z,13.50
2023-09-30T14:49:51.986Z,17.50
2023-09-30T14:52:19.035Z,27.60
2023-09-30T14:54:46.055Z,22.00
2023-09-30T14:57:15.052Z,23.10
2023-09-30T14:59:41.993Z,32.40
2023-09-30T15:02:12.181Z,21.60
2023-09-30T15:04:39.481Z,24.50
2023-09-30T15:07:07.176Z,34.10
2023-09-30T15:09:34.521Z,24.40
2023-09-30T15:12:01.560Z,18.70
2023-09-30T15:14:28.789Z,17.70
2023-09-30T15:16:55.905Z,43.70
2023-09-30T15:19:23.152Z,61.50
2023-09-30T15:21:50.924Z,49.30
2023-09-30T15:24:17.991Z,56.80
2023-09-30T15:26:45.368Z,57.40
2023-09-30T15:29:12.509Z,52.10
2023-09-30T15:31:39.925Z,49.20
2023-09-30T15:34:07.280Z,47.50
2023-09-30T15:36:34.764Z,115.00
2023-09-30T15:39:02.653Z,69.00
2023-09-30T15:41:29.896Z,55.30
2023-09-30T15:44:00.866Z,225.70
2023-09-30T15:46:28.144Z,255.00
2023-09-30T15:48:55.201Z,173.50
2023-09-30T15:51:22.796Z,66.90
2023-09-30T15:53:49.936Z,50.80
2023-09-30T15:56:17.188Z,40.70
2023-09-30T15:58:44.162Z,43.90
2023-09-30T16:01:14.432Z,39.20
2023-09-30T16:03:44.256Z,38.90
2023-09-30T16:06:11.612Z,38.50
2023-09-30T16:08:38.678Z,103.30
2023-09-30T16:11:05.628Z,97.40
2023-09-30T16:13:33.310Z,76.60
2023-09-30T16:16:00.263Z,47.00
2023-09-30T16:18:29.557Z,93.70
2023-09-30T16:20:56.580Z,97.60
2023-09-30T16:23:23.848Z,66.80
2023-09-30T16:25:50.855Z,65.30
2023-09-30T16:28:18.136Z,58.60
2023-09-30T16:30:45.632Z,51.90
2023-09-30T16:33:12.986Z,72.90
2023-09-30T16:35:40.657Z,72.00
2023-09-30T16:38:07.644Z,78.60
2023-09-30T16:40:34.723Z,74.30
2023-09-30T16:43:01.754Z,75.40
2023-09-30T16:45:28.986Z,59.70
2023-09-30T16:47:56.024Z,71.40
2023-09-30T16:50:23.452Z,76.50
2023-09-30T16:52:50.653Z,67.50
2023-09-30T16:55:17.727Z,63.80
2023-09-30T16:57:44.838Z,67.90
2023-09-30T17:00:12.530Z,62.80
2023-09-30T17:02:39.734Z,54.80
2023-09-30T17:05:07.832Z,46.90
2023-09-30T17:07:35.845Z,44.30
2023-09-30T17:10:03.103Z,43.30
2023-09-30T17:12:30.376Z,44.90
2023-09-30T17:14:57.334Z,47.70
2023-09-30T17:17:24.479Z,47.90
2023-09-30T17:19:51.487Z,44.80
2023-09-30T17:22:19.021Z,43.80
2023-09-30T17:24:46.573Z,39.60
2023-09-30T17:27:13.700Z,31.10
2023-09-30T17:29:40.858Z,31.10
2023-09-30T17:32:08.315Z,30.80
2023-09-30T17:34:41.045Z,27.10
2023-09-30T17:37:09.040Z,22.50
2023-09-30T17:39:36.146Z,18.20
2023-09-30T17:42:03.214Z,18.10
2023-09-30T17:44:30.358Z,19.50
2023-09-30T17:46:57.335Z,18.60
2023-09-30T17:49:24.305Z,21.20
2023-09-30T17:51:51.358Z,20.00
2023-09-30T17:54:18.381Z,19.30
2023-09-30T17:56:45.512Z,20.50
2023-09-30T17:59:13.586Z,20.70
2023-09-30T18:01:40.714Z,22.50
2023-09-30T18:04:08.418Z,22.40
2023-09-30T18:06:35.846Z,20.90
2023-09-30T18:09:04.042Z,22.50
2023-09-30T18:11:31.208Z,19.90
2023-09-30T18:13:58.478Z,20.90
2023-09-30T18:16:26.447Z,21.00
2023-09-30T18:18:53.538Z,21.30
2023-09-30T18:21:20.741Z,20.90
2023-09-30T18:23:47.962Z,20.80
2023-09-30T18:26:16.298Z,20.60
2023-09-30T18:28:44.498Z,21.00
2023-09-30T18:31:12.408Z,21.20
2023-09-30T18:33:39.532Z,21.10
2023-09-30T18:36:08.637Z,21.80
2023-09-30T18:38:35.611Z,19.00
2023-09-30T18:41:11.031Z,19.70
2023-09-30T18:43:38.443Z,17.00
2023-09-30T18:46:10.404Z,16.70
2023-09-30T18:48:37.850Z,17.90
2023-09-30T18:51:04.840Z,18.40
2023-09-30T18:53:31.834Z,15.10
2023-09-30T18:55:59.153Z,14.90
2023-09-30T18:58:26.088Z,14.10
2023-09-30T19:00:53.214Z,13.50
2023-09-30T19:03:20.283Z,12.00
2023-09-30T19:05:55.096Z,11.70
2023-09-30T19:08:24.012Z,9.10
2023-09-30T19:11:57.975Z,11.70
2023-09-30T19:14:25.071Z,12.70
2023-09-30T19:16:52.223Z,12.90
2023-09-30T19:19:19.381Z,13.70
2023-09-30T19:21:46.529Z,13.40
2023-09-30T19:24:13.714Z,14.90
2023-09-30T19:26:40.946Z,15.30
2023-09-30T19:29:08.181Z,14.80
2023-09-30T19:31:35.799Z,14.90
2023-09-30T19:34:03.156Z,12.40
2023-09-30T19:36:30.371Z,12.20
2023-09-30T19:38:57.406Z,14.30
2023-09-30T19:41:24.342Z,13.40
2023-09-30T19:43:52.082Z,14.70
2023-09-30T19:46:19.236Z,14.50
2023-09-30T19:48:46.690Z,14.00
2023-09-30T19:51:16.522Z,15.70
2023-09-30T19:53:43.643Z,21.50
2023-09-30T19:56:10.620Z,22.10
2023-09-30T19:58:38.328Z,18.40
2023-09-30T20:01:09.439Z,17.10
2023-09-30T20:03:39.960Z,15.70
2023-09-30T20:06:19.662Z,21.30
2023-09-30T20:08:51.250Z,21.50
2023-09-30T20:11:24.132Z,20.10
2023-09-30T20:13:52.456Z,20.60
2023-09-30T20:16:19.792Z,18.00
2023-09-30T20:18:47.273Z,16.30
2023-09-30T20:21:14.375Z,18.10
2023-09-30T20:23:41.613Z,14.40
2023-09-30T20:26:13.989Z,15.00
2023-09-30T20:28:41.096Z,15.40
2023-09-30T20:31:08.251Z,15.90
2023-09-30T20:33:35.720Z,16.50
2023-09-30T20:36:07.013Z,15.90
2023-09-30T20:38:37.066Z,16.80
2023-09-30T20:41:08.451Z,17.70
2023-09-30T20:43:35.487Z,13.90
2023-09-30T20:46:04.035Z,15.50
2023-09-30T20:48:31.491Z,16.80
2023-09-30T20:50:58.665Z,15.30
2023-09-30T20:53:28.950Z,15.20
2023-09-30T20:55:55.893Z,15.00
2023-09-30T20:58:22.866Z,14.90
2023-09-30T21:00:50.057Z,18.00
2023-09-30T21:03:17.905Z,13.30
2023-09-30T21:05:45.260Z,14.70
2023-09-30T21:08:16.069Z,17.50
2023-09-30T21:10:43.875Z,18.30
2023-09-30T21:13:10.944Z,16.30
2023-09-30T21:15:38.003Z,15.20
2023-09-30T21:18:05.624Z,18.70
2023-09-30T21:20:33.466Z,19.50
2023-09-30T21:23:00.849Z,16.60
2023-09-30T21:25:27.778Z,16.80
2023-09-30T21:27:55.409Z,18.10
2023-09-30T21:30:22.386Z,18.40
2023-09-30T21:32:49.556Z,19.90
2023-09-30T21:35:17.418Z,19.10
2023-09-30T21:37:44.785Z,16.70
2023-09-30T21:40:13.288Z,20.80
2023-09-30T21:42:40.557Z,18.60
2023-09-30T21:45:08.464Z,17.30
2023-09-30T21:47:35.438Z,18.00
2023-09-30T21:50:02.594Z,20.00
2023-09-30T21:52:29.966Z,20.70
2023-09-30T21:54:56.982Z,18.40
2023-09-30T21:57:23.915Z,18.60
2023-09-30T21:59:50.838Z,18.60
2023-09-30T22:02:17.808Z,14.60
2023-09-30T22:04:45.563Z,14.00
2023-09-30T22:07:12.571Z,15.10
2023-09-30T22:09:40.334Z,14.40
2023-09-30T22:12:07.866Z,14.30
2023-09-30T22:14:34.861Z,14.40
2023-09-30T22:17:02.952Z,15.20
2023-09-30T22:19:30.653Z,13.30
2023-09-30T22:21:57.684Z,13.30
2023-09-30T22:24:24.743Z,13.90
2023-09-30T22:26:51.743Z,14.10
2023-09-30T22:29:18.834Z,14.00
2023-09-30T22:31:46.483Z,14.60
2023-09-30T22:34:13.600Z,15.10
2023-09-30T22:36:46.345Z,11.10
2023-09-30T22:39:13.942Z,11.50
2023-09-30T22:41:40.864Z,11.20
2023-09-30T22:44:07.954Z,10.20
2023-09-30T22:46:34.978Z,9.50
2023-09-30T22:49:02.167Z,10.00
2023-09-30T22:51:29.397Z,9.20
2023-09-30T22:53:56.362Z,6.20
2023-09-30T22:56:24.463Z,6.90
2023-09-30T22:58:52.967Z,7.10
2023-09-30T23:01:24.155Z,6.90
2023-09-30T23:03:53.823Z,7.20
2023-09-30T23:06:21.502Z,6.10
2023-09-30T23:08:50.620Z,6.80
2023-09-30T23:11:18.673Z,4.30
2023-09-30T23:13:46.875Z,4.50
2023-09-30T23:16:14.491Z,4.90
2023-09-30T23:18:41.758Z,4.90
2023-09-30T23:21:09.527Z,5.00
2023-09-30T23:23:36.962Z,4.80
2023-09-30T23:26:05.270Z,5.40
2023-09-30T23:28:35.356Z,3.80
2023-09-30T23:31:04.171Z,4.00
2023-09-30T23:33:31.974Z,4.20
2023-09-30T23:36:03.752Z,4.70
2023-09-30T23:38:31.954Z,4.70
2023-09-30T23:40:59.988Z,4.30
2023-09-30T23:43:27.510Z,4.50
2023-09-30T23:45:54.789Z,3.60
2023-09-30T23:48:25.193Z,3.90
2023-09-30T23:50:54.518Z,3.80
2023-09-30T23:53:23.826Z,3.80
2023-09-30T23:55:50.984Z,4.10
2023-09-30T23:58:18.115Z,4.00
